Portada
METAR-TAF:

METAR-TAF

Aeropuertos :

Aeropuerto de León

León, España

latitud: 42-35N, longitud: 005-39W, altitud: 926 m

Observación

El informe se hizo hace 28 minutos, a las 09:00 UTC
Viento 4 kt del este-sureste, variando entre este-noreste y sur-sureste
Temperatura 6°C
Humedad 100%
Presión 1009 hPa
Visibilidad: 7000 m
Nubes dispersas a una altura de 300 ft
Cielo nuboso a una altura de 1500 ft
lluvia ligera

METAR: LELN 150900Z 12004KT 070V160 7000 -RA SCT003 BKN015 06/06 Q1009 RERA

Hora: 11:28 (09:28 UTC)

Pronóstico

El informe se hizo hace 1 hora y 28 minutos, a las 08:00 UTC
Pronóstico válido del 15 a las 09 UTC al 15 a las 18 UTC
Viento 5 kt con dirección variable
Visibilidad 10 km o más
Cielo nuboso a una altura de 3000 ft
Temporalmente
del 15 a las 09 UTC al 15 a las 14 UTC
Visibilidad: 3000 m
Cielo nuboso a una altura de 800 ft
lluvia

TAF: LELN 150800Z 1509/1518 VRB05KT 9999 BKN030 TEMPO 1509/1514 3000 RA BKN008

Observaciones y pronósticos meteorológicos de más de 4000 aeropuertos (mensajes METAR y TAF).

Los puntos amarillos y rojos representan las estaciones disponibles.

Ponga el ratón en el punto deseado para ver el nombre de la estación.

Haga clic para ver las observaciones y los pronósticos meteorológicos.

Para cambiar el mapa : haga clic en los botones verdes con una cruz de color negro para hacer un zoom, en el botón verde con un guión para alejar o en las flechas verdes para mapas adyacentes.


METAR-TAF: